Time;durP1;ratioP1;P1;durP2;ratioP2;P2;SDS_P1;SDS_P2;PMS_P1;PMS_P2;Temp;Humidity;BMP_temperature;BMP_pressure;BME280_temperature;BME280_humidity;BME280_pressure;Samples;Min_cycle;Max_cycle;Signal;HPM_P1;HPM_P2
2024/02/17 00:03:43;;;;;;;1999.90;999.90;;;;;;;9.95;100.00;102319.16;10214172;29;20087;-66
2024/02/17 00:08:46;;;;;;;1999.90;999.90;;;;;;;10.03;100.00;102317.16;10196582;29;20058;-66
2024/02/17 00:13:48;;;;;;;1999.90;999.90;;;;;;;9.83;100.00;102313.41;10213369;29;20491;-66
2024/02/17 00:18:51;;;;;;;1999.90;999.90;;;;;;;9.90;100.00;102319.31;10213211;29;20099;-66
2024/02/17 00:23:53;;;;;;;1999.90;999.90;;;;;;;9.94;100.00;102318.31;10212078;29;20524;-66
2024/02/17 00:28:57;;;;;;;1999.90;999.90;;;;;;;10.05;100.00;102325.81;10201163;29;20075;-66
2024/02/17 00:33:59;;;;;;;1999.90;999.90;;;;;;;9.98;100.00;102330.38;10220378;29;20452;-66
2024/02/17 00:39:02;;;;;;;1999.90;999.90;;;;;;;9.95;100.00;102337.47;10219204;29;20086;-66
2024/02/17 00:44:05;;;;;;;1999.90;999.90;;;;;;;10.02;100.00;102326.78;10220608;29;20051;-66
2024/02/17 00:49:10;;;;;;;1999.90;999.90;;;;;;;9.95;100.00;102338.34;10220358;29;20043;-66
2024/02/17 00:54:13;;;;;;;1999.90;999.90;;;;;;;10.00;100.00;102344.31;10219122;29;20150;-66
2024/02/17 00:59:16;;;;;;;1999.90;999.90;;;;;;;9.84;100.00;102348.28;10219391;29;20479;-66
2024/02/17 01:04:18;;;;;;;1999.90;999.90;;;;;;;10.02;100.00;102355.56;10219931;29;20047;-66
2024/02/17 01:09:21;;;;;;;1999.90;999.90;;;;;;;9.87;100.00;102361.28;10217900;29;20443;-66
2024/02/17 01:14:23;;;;;;;1999.90;999.90;;;;;;;9.96;100.00;102360.97;10219500;29;20055;-66
2024/02/17 01:19:25;;;;;;;1999.90;999.90;;;;;;;9.81;100.00;102362.28;10218038;29;20043;-66
2024/02/17 01:24:28;;;;;;;1999.90;999.90;;;;;;;9.83;100.00;102365.75;10218507;29;20060;-66
2024/02/17 01:29:30;;;;;;;1999.90;999.90;;;;;;;9.86;100.00;102370.00;10217795;29;20047;-66
2024/02/17 01:34:33;;;;;;;1999.90;999.90;;;;;;;9.85;100.00;102378.75;10216970;29;20464;-66
2024/02/17 01:39:35;;;;;;;1999.90;999.90;;;;;;;9.90;100.00;102384.72;10217444;29;20107;-66
2024/02/17 01:44:38;;;;;;;1999.90;999.90;;;;;;;9.91;100.00;102385.56;10217162;29;20063;-66
2024/02/17 01:49:41;;;;;;;1999.90;999.90;;;;;;;9.85;100.00;102392.69;10216977;29;20135;-66
2024/02/17 01:54:44;;;;;;;1999.90;999.90;;;;;;;9.70;100.00;102395.75;10216206;29;20460;-66
2024/02/17 01:59:47;;;;;;;1999.90;999.90;;;;;;;9.91;100.00;102403.88;10215938;29;20407;-66
2024/02/17 02:04:49;;;;;;;1999.90;999.90;;;;;;;9.91;100.00;102406.50;10216927;29;20396;-66
2024/02/17 02:09:52;;;;;;;1999.90;999.90;;;;;;;9.78;100.00;102408.59;10216224;29;20056;-66
2024/02/17 02:15:12;;;;;;;1999.90;999.90;;;;;;;9.87;100.00;102416.22;10199783;29;20415;-66
2024/02/17 02:20:16;;;;;;;1999.90;999.90;;;;;;;9.82;100.00;102418.09;10215166;29;20455;-66
2024/02/17 02:25:26;;;;;;;1999.90;999.90;;;;;;;9.85;100.00;102426.72;10215593;29;20056;-66
2024/02/17 02:30:28;;;;;;;1999.90;999.90;;;;;;;9.78;100.00;102429.53;10216558;29;20135;-66
2024/02/17 02:35:31;;;;;;;1999.90;999.90;;;;;;;9.81;100.00;102437.31;10215954;29;20496;-66
2024/02/17 02:40:33;;;;;;;1999.90;999.90;;;;;;;9.84;100.00;102438.06;10214614;29;20058;-66
2024/02/17 02:45:37;;;;;;;1999.90;999.90;;;;;;;9.83;100.00;102443.34;10216089;29;20056;-66
2024/02/17 02:50:39;;;;;;;1999.90;999.90;;;;;;;9.86;100.00;102453.72;10213261;29;20491;-66
2024/02/17 02:55:42;;;;;;;1999.90;999.90;;;;;;;9.74;100.00;102456.69;10215742;29;20054;-66
2024/02/17 03:00:44;;;;;;;1999.90;999.90;;;;;;;9.75;100.00;102463.63;10215586;29;20061;-66
2024/02/17 03:05:47;;;;;;;1999.90;999.90;;;;;;;9.81;100.00;102463.47;10214284;29;20055;-66
2024/02/17 03:10:50;;;;;;;1999.90;999.90;;;;;;;9.84;100.00;102469.47;10214652;29;20059;-66
2024/02/17 03:15:52;;;;;;;1999.90;999.90;;;;;;;9.84;100.00;102482.53;10215068;29;20051;-66
2024/02/17 03:20:55;;;;;;;1999.90;999.90;;;;;;;9.84;100.00;102484.31;10215023;29;20065;-66
2024/02/17 03:25:57;;;;;;;1999.90;999.90;;;;;;;9.83;100.00;102493.03;10214898;29;20057;-66
2024/02/17 03:30:59;;;;;;;1999.90;999.90;;;;;;;9.61;100.00;102490.16;10214779;29;20115;-66
2024/02/17 03:36:03;;;;;;;1999.90;999.90;;;;;;;9.78;100.00;102500.16;10214004;29;20384;-66
2024/02/17 03:41:06;;;;;;;1999.90;999.90;;;;;;;10.02;100.00;102493.41;10212876;29;20115;-66
2024/02/17 03:46:08;;;;;;;1999.90;999.90;;;;;;;9.88;100.00;102506.00;10213899;29;20051;-66
2024/02/17 03:51:10;;;;;;;1999.90;999.90;;;;;;;9.74;100.00;102509.84;10213841;29;20510;-66
2024/02/17 03:56:16;;;;;;;1999.90;999.90;;;;;;;9.80;100.00;102517.53;10221319;23;20055;-66
2024/02/17 04:01:19;;;;;;;1999.90;999.90;;;;;;;9.60;100.00;102535.50;10197349;29;20051;-66
2024/02/17 04:06:21;;;;;;;1999.90;999.90;;;;;;;9.88;100.00;102532.16;10220357;29;20456;-66
2024/02/17 04:11:25;;;;;;;1999.90;999.90;;;;;;;9.75;100.00;102544.69;10220805;29;20056;-66
2024/02/17 04:16:27;;;;;;;1999.90;999.90;;;;;;;9.78;100.00;102552.47;10221035;29;20070;-66
2024/02/17 04:21:30;;;;;;;1999.90;999.90;;;;;;;9.73;100.00;102551.75;10220903;29;20170;-66
2024/02/17 04:26:32;;;;;;;1999.90;999.90;;;;;;;9.76;100.00;102556.91;10220233;29;20059;-66
2024/02/17 04:31:35;;;;;;;1999.90;999.90;;;;;;;9.73;100.00;102568.28;10220607;29;20570;-66
2024/02/17 04:36:37;;;;;;;1999.90;999.90;;;;;;;9.73;100.00;102572.66;10220872;29;20098;-66
2024/02/17 04:41:40;;;;;;;1999.90;999.90;;;;;;;9.78;100.00;102578.63;10219553;29;20047;-66
2024/02/17 04:46:42;;;;;;;1999.90;999.90;;;;;;;9.67;100.00;102600.69;10219986;29;20506;-66
2024/02/17 04:51:45;;;;;;;1999.90;999.90;;;;;;;9.68;100.00;102606.78;10218673;29;20488;-66
2024/02/17 04:56:48;;;;;;;1999.90;999.90;;;;;;;9.67;100.00;102605.91;10219510;29;20047;-66
2024/02/17 05:01:50;;;;;;;1999.90;999.90;;;;;;;9.60;100.00;102604.38;10220012;29;20051;-66
2024/02/17 05:06:54;;;;;;;1999.90;999.90;;;;;;;9.76;100.00;102617.06;10202976;29;20048;-66
2024/02/17 05:11:58;;;;;;;1999.90;999.90;;;;;;;9.56;100.00;102628.84;10219018;29;20503;-66
2024/02/17 05:17:00;;;;;;;1999.90;999.90;;;;;;;9.65;100.00;102635.66;10217805;29;20526;-66
2024/02/17 05:22:03;;;;;;;1999.90;999.90;;;;;;;9.82;100.00;102635.22;10218590;29;20073;-66
2024/02/17 05:27:06;;;;;;;1999.90;999.90;;;;;;;9.80;100.00;102645.72;10202242;29;20079;-66
2024/02/17 05:32:08;;;;;;;1999.90;999.90;;;;;;;9.79;100.00;102645.75;10217129;29;20455;-66
2024/02/17 05:37:11;;;;;;;1999.90;999.90;;;;;;;9.70;100.00;102664.28;10217494;29;20044;-66
2024/02/17 05:42:13;;;;;;;1999.90;999.90;;;;;;;9.82;100.00;102669.22;10218558;29;20052;-66
2024/02/17 05:47:15;;;;;;;1999.90;999.90;;;;;;;9.76;100.00;102672.84;10217239;29;20047;-66
2024/02/17 05:52:18;;;;;;;1999.90;999.90;;;;;;;9.72;100.00;102680.81;10217982;29;20047;-66
2024/02/17 05:57:20;;;;;;;1999.90;999.90;;;;;;;9.73;100.00;102682.53;10217954;29;20052;-66
2024/02/17 06:02:22;;;;;;;1999.90;999.90;;;;;;;9.76;100.00;102693.75;10200299;29;20495;-66
2024/02/17 06:07:25;;;;;;;1999.90;999.90;;;;;;;9.79;100.00;102698.06;10216454;29;20131;-66
2024/02/17 06:12:27;;;;;;;1999.90;999.90;;;;;;;9.72;100.00;102697.38;10216757;29;20052;-66
2024/02/17 06:17:30;;;;;;;1999.90;999.90;;;;;;;9.93;100.00;102697.75;10215983;29;20052;-66
2024/02/17 06:22:32;;;;;;;1999.90;999.90;;;;;;;10.02;100.00;102706.22;10215791;29;20086;-66
2024/02/17 06:27:35;;;;;;;1999.90;999.90;;;;;;;9.85;100.00;102718.84;10216005;29;20483;-66
2024/02/17 06:32:37;;;;;;;1999.90;999.90;;;;;;;9.86;100.00;102717.97;10199808;29;20103;-66
2024/02/17 06:37:41;;;;;;;1999.90;999.90;;;;;;;9.79;100.00;102724.25;10216373;29;20054;-66
2024/02/17 06:42:43;;;;;;;1999.90;999.90;;;;;;;9.73;100.00;102733.06;10216233;29;20112;-66
2024/02/17 06:47:46;;;;;;;1999.90;999.90;;;;;;;9.73;100.00;102742.69;10216067;29;20131;-66
2024/02/17 06:52:49;;;;;;;1999.90;999.90;;;;;;;9.79;100.00;102760.88;10214476;29;20087;-66
2024/02/17 06:57:53;;;;;;;1999.90;999.90;;;;;;;9.76;100.00;102763.53;10215675;29;20052;-66
2024/02/17 07:02:55;;;;;;;1999.90;999.90;;;;;;;9.60;100.00;102771.72;10215568;29;20095;-66
2024/02/17 07:07:58;;;;;;;1999.90;999.90;;;;;;;9.78;100.00;102780.06;10214252;29;20054;-66
2024/02/17 07:13:01;;;;;;;1999.90;999.90;;;;;;;9.79;100.00;102779.19;10214163;29;20130;-67
2024/02/17 07:18:03;;;;;;;1999.90;999.90;;;;;;;10.01;100.00;102788.25;10215066;29;20052;-66
2024/02/17 07:23:06;;;;;;;1999.90;999.90;;;;;;;10.02;100.00;102792.59;10213877;29;20051;-67
2024/02/17 07:28:11;;;;;;;1999.90;999.90;;;;;;;10.00;100.00;102802.25;10214931;29;20054;-68
2024/02/17 07:33:18;;;;;;;1999.90;999.90;;;;;;;9.89;100.00;102806.84;10213120;29;20056;-68
2024/02/17 07:38:21;;;;;;;1999.90;999.90;;;;;;;10.19;100.00;102825.38;10212379;29;20544;-68
2024/02/17 07:43:24;;;;;;;1999.90;999.90;;;;;;;10.09;100.00;102823.88;10214636;29;20079;-68
2024/02/17 07:48:26;;;;;;;1999.90;999.90;;;;;;;10.23;100.00;102837.47;10213368;29;20052;-68
2024/02/17 07:53:29;;;;;;;1999.90;999.90;;;;;;;10.22;100.00;102843.59;10214115;29;20139;-68
2024/02/17 07:58:31;;;;;;;1999.90;999.90;;;;;;;10.44;100.00;102844.00;10213664;29;20132;-68
2024/02/17 08:03:34;;;;;;;1999.90;999.90;;;;;;;10.46;100.00;102849.22;10213096;29;20062;-68
2024/02/17 08:08:36;;;;;;;1999.90;999.90;;;;;;;10.53;100.00;102866.50;10213580;29;20149;-67
2024/02/17 08:13:39;;;;;;;1999.90;999.90;;;;;;;10.31;100.00;102879.22;10214121;29;20059;-68
2024/02/17 08:18:42;;;;;;;1999.90;999.90;;;;;;;10.40;100.00;102884.25;10196531;29;20479;-68
2024/02/17 08:23:45;;;;;;;1999.90;999.90;;;;;;;10.41;100.00;102893.84;10213922;29;20126;-68
2024/02/17 08:28:47;;;;;;;1999.90;999.90;;;;;;;10.49;100.00;102899.75;10212697;29;20079;-68
2024/02/17 08:33:50;;;;;;;1999.90;999.90;;;;;;;10.55;100.00;102896.13;10212657;29;20058;-68
2024/02/17 08:38:52;;;;;;;1999.90;999.90;;;;;;;10.90;100.00;102895.25;10212468;29;20079;-68
2024/02/17 08:43:56;;;;;;;1999.90;999.90;;;;;;;10.86;100.00;102914.59;10212388;29;20066;-68
2024/02/17 08:48:58;;;;;;;1999.90;999.90;;;;;;;11.18;100.00;102917.28;10214854;29;20126;-68
2024/02/17 08:54:01;;;;;;;1999.90;999.90;;;;;;;11.17;100.00;102926.91;10218749;29;20091;-68
2024/02/17 08:59:03;;;;;;;1999.90;999.90;;;;;;;11.01;100.00;102936.94;10218989;29;20048;-68
2024/02/17 09:04:06;;;;;;;1999.90;999.90;;;;;;;11.07;100.00;102943.78;10219433;29;20134;-68
2024/02/17 09:09:08;;;;;;;1999.90;999.90;;;;;;;11.02;100.00;102949.13;10218676;29;20048;-68
2024/02/17 09:14:11;;;;;;;1999.90;999.90;;;;;;;11.11;100.00;102956.78;10202759;29;20056;-67
2024/02/17 09:19:13;;;;;;;1999.90;999.90;;;;;;;11.59;100.00;102952.03;10218765;29;20457;-68
2024/02/17 09:24:19;;;;;;;1999.90;999.90;;;;;;;11.56;100.00;102968.72;10219300;29;20110;-68
2024/02/17 09:29:22;;;;;;;1999.90;999.90;;;;;;;11.79;100.00;102965.47;10218062;29;20090;-68
2024/02/17 09:34:26;;;;;;;1999.90;999.90;;;;;;;11.37;100.00;102970.97;10219234;29;20062;-68
2024/02/17 09:39:29;;;;;;;1999.90;999.90;;;;;;;11.51;100.00;102976.69;10218681;29;20072;-68
2024/02/17 09:44:32;;;;;;;1999.90;999.90;;;;;;;11.84;100.00;102986.34;10218724;29;20055;-68
2024/02/17 09:49:36;;;;;;;1999.90;999.90;;;;;;;11.61;100.00;102994.84;10200892;29;20407;-68
2024/02/17 09:54:39;;;;;;;1999.90;999.90;;;;;;;11.63;100.00;102991.28;10217674;29;20059;-68
2024/02/17 09:59:41;;;;;;;1999.90;999.90;;;;;;;11.84;100.00;103000.31;10217473;29;20062;-68
2024/02/17 10:05:02;;;;;;;1999.90;999.90;;;;;;;11.85;100.00;103002.06;10217776;29;20107;-68
2024/02/17 10:10:05;;;;;;;1999.90;999.90;;;;;;;12.00;100.00;103000.78;10200861;29;20050;-68
2024/02/17 10:15:08;;;;;;;1999.90;999.90;;;;;;;12.21;100.00;102999.31;10217303;29;20047;-68
2024/02/17 10:20:11;;;;;;;1999.90;999.90;;;;;;;11.98;100.00;103001.72;10216447;29;20051;-68
2024/02/17 10:25:14;;;;;;;1999.90;999.90;;;;;;;12.30;100.00;102997.31;10215176;29;20464;-68
2024/02/17 10:30:20;;;;;;;1999.90;999.90;;;;;;;12.63;100.00;102998.06;10216346;29;20408;-68
2024/02/17 10:35:23;;;;;;;1999.90;999.90;;;;;;;12.60;100.00;103004.25;10216597;29;20051;-68
2024/02/17 10:40:26;;;;;;;1999.90;999.90;;;;;;;12.55;100.00;103006.16;10214555;29;20508;-68
2024/02/17 10:45:28;;;;;;;1999.90;999.90;;;;;;;12.56;100.00;103007.06;10216199;29;20127;-68
2024/02/17 10:50:34;;;;;;;1999.90;999.90;;;;;;;12.96;100.00;103011.91;10214922;29;20463;-68
2024/02/17 10:55:38;;;;;;;1999.90;999.90;;;;;;;13.22;100.00;103020.72;10214307;29;20058;-68
2024/02/17 11:00:45;;;;;;;1999.90;999.90;;;;;;;13.22;100.00;103022.50;10215708;29;20050;-68
2024/02/17 11:06:05;;;;;;;1999.90;999.90;;;;;;;13.14;100.00;103026.22;10214438;29;20083;-68
2024/02/17 11:11:32;;;;;;;1999.90;999.90;;;;;;;12.81;100.00;103028.19;10213568;29;20054;-68
2024/02/17 11:16:36;;;;;;;1999.90;999.90;;;;;;;12.84;100.00;103041.22;10215370;29;20059;-68
2024/02/17 11:21:40;;;;;;;1999.90;999.90;;;;;;;12.68;99.78;103043.47;10214493;29;20443;-68
2024/02/17 11:26:42;;;;;;;1999.90;999.90;;;;;;;12.35;100.00;103058.47;10215195;29;20058;-68
2024/02/17 11:31:48;;;;;;;1999.90;999.90;;;;;;;12.63;100.00;103061.13;10213977;29;20097;-68
2024/02/17 11:36:50;;;;;;;1999.90;999.90;;;;;;;12.38;100.00;103066.25;10213232;29;20411;-68
2024/02/17 11:41:53;;;;;;;1999.90;999.90;;;;;;;12.38;100.00;103071.50;10214129;29;20052;-68
2024/02/17 11:46:55;;;;;;;1999.90;999.90;;;;;;;13.16;100.00;103066.50;10213000;29;20063;-68
2024/02/17 11:51:58;;;;;;;1999.90;999.90;;;;;;;13.19;100.00;103066.38;10214387;29;20127;-68
2024/02/17 11:57:05;;;;;;;1999.90;999.90;;;;;;;12.68;100.00;103063.63;10212588;29;20078;-68
2024/02/17 12:02:10;;;;;;;1999.90;999.90;;;;;;;13.11;100.00;103070.16;10213125;29;20051;-68
2024/02/17 12:07:13;;;;;;;1999.90;999.90;;;;;;;12.60;100.00;103069.97;10214261;29;20047;-68
2024/02/17 12:12:15;;;;;;;1999.90;999.90;;;;;;;12.59;100.00;103083.13;10214168;29;20058;-68
2024/02/17 12:17:18;;;;;;;1999.90;999.90;;;;;;;12.41;100.00;103095.06;10212183;29;20050;-68
2024/02/17 12:22:20;;;;;;;1999.90;999.90;;;;;;;12.37;100.00;103088.16;10214436;29;20058;-68
2024/02/17 12:27:23;;;;;;;1999.90;999.90;;;;;;;12.92;100.00;103091.78;10221450;29;20140;-68
2024/02/17 12:32:26;;;;;;;1999.90;999.90;;;;;;;12.68;100.00;103095.19;10220132;29;20059;-68
2024/02/17 12:37:28;;;;;;;1999.90;999.90;;;;;;;12.93;100.00;103088.25;10220345;29;20475;-68
2024/02/17 12:42:30;;;;;;;1999.90;999.90;;;;;;;13.05;100.00;103083.53;10219701;29;20051;-68
2024/02/17 12:47:33;;;;;;;1999.90;999.90;;;;;;;13.01;100.00;103095.88;10218900;29;20074;-68
2024/02/17 12:52:35;;;;;;;1999.90;999.90;;;;;;;13.75;99.96;103094.41;10219836;29;20495;-68
2024/02/17 12:57:38;;;;;;;1999.90;999.90;;;;;;;13.76;95.37;103092.63;10219158;29;20538;-69
2024/02/17 13:02:40;;;;;;;1999.90;999.90;;;;;;;13.30;95.33;103086.25;10220204;29;20063;-69
2024/02/17 13:07:43;;;;;;;1999.90;999.90;;;;;;;13.73;95.81;103095.34;10219396;29;20411;-69
2024/02/17 13:12:45;;;;;;;1999.90;999.90;;;;;;;13.44;97.16;103096.34;10218678;29;20051;-69
2024/02/17 13:17:48;;;;;;;1999.90;999.90;;;;;;;13.09;99.28;103095.66;10218390;29;20047;-69
2024/02/17 13:22:51;;;;;;;1999.90;999.90;;;;;;;13.29;97.50;103100.28;10218802;29;20082;-69
2024/02/17 13:27:53;;;;;;;1999.90;999.90;;;;;;;13.17;99.22;103096.28;10218820;29;20059;-69
2024/02/17 13:32:56;;;;;;;1999.90;999.90;;;;;;;12.89;100.00;103098.91;10219024;29;20087;-69
2024/02/17 13:37:58;;;;;;;1999.90;999.90;;;;;;;13.57;99.03;103100.28;10217305;29;20491;-69
2024/02/17 13:43:19;;;;;;;1999.90;999.90;;;;;;;13.37;100.00;103100.94;10217725;29;20062;-69
2024/02/17 13:48:22;;;;;;;1999.90;999.90;;;;;;;13.35;99.68;103093.09;10218687;29;20059;-69
2024/02/17 13:53:24;;;;;;;1999.90;999.90;;;;;;;13.34;100.00;103101.03;10217460;29;20060;-69
2024/02/17 13:58:27;;;;;;;1999.90;999.90;;;;;;;13.09;100.00;103100.91;10216837;29;20050;-69
2024/02/17 14:03:30;;;;;;;1999.90;999.90;;;;;;;12.82;100.00;103114.00;10217919;29;20051;-69
2024/02/17 14:08:32;;;;;;;1999.90;999.90;;;;;;;12.73;100.00;103107.25;10217699;29;20048;-69
2024/02/17 14:13:35;;;;;;;1999.90;999.90;;;;;;;13.23;100.00;103108.38;10216872;29;20052;-69
2024/02/17 14:18:37;;;;;;;1999.90;999.90;;;;;;;13.24;99.57;103103.06;10217225;29;20055;-69
2024/02/17 14:23:40;;;;;;;1999.90;999.90;;;;;;;13.84;97.81;103093.22;10216435;29;20415;-69
2024/02/17 14:28:43;;;;;;;1999.90;999.90;;;;;;;13.34;97.34;103103.66;10216892;29;20048;-69
2024/02/17 14:33:45;;;;;;;1999.90;999.90;;;;;;;13.35;97.76;103111.50;10215556;29;20085;-69
2024/02/17 14:38:48;;;;;;;1999.90;999.90;;;;;;;13.46;97.68;103107.66;10216529;29;20055;-69
2024/02/17 14:43:50;;;;;;;1999.90;999.90;;;;;;;13.59;97.88;103108.13;10215695;29;20404;-69
2024/02/17 14:48:52;;;;;;;1999.90;999.90;;;;;;;13.66;93.06;103107.88;10214941;29;20047;-69
2024/02/17 14:53:55;;;;;;;1999.90;999.90;;;;;;;13.71;94.19;103118.25;10215608;29;20063;-69
2024/02/17 14:58:57;;;;;;;1999.90;999.90;;;;;;;13.54;96.57;103126.69;10215277;29;20054;-70
2024/02/17 15:04:00;;;;;;;1999.90;999.90;;;;;;;13.31;96.90;103130.03;10215670;29;20090;-69
2024/02/17 15:09:05;;;;;;;1999.90;999.90;;;;;;;13.15;96.61;103135.78;10215010;29;20388;-70
2024/02/17 15:14:07;;;;;;;1999.90;999.90;;;;;;;13.36;97.51;103129.03;10215361;29;20055;-70
2024/02/17 15:19:11;;;;;;;1999.90;999.90;;;;;;;13.35;98.00;103135.19;10214546;29;20051;-69
2024/02/17 15:24:13;;;;;;;1999.90;999.90;;;;;;;13.57;94.56;103140.63;10215116;29;20119;-70
2024/02/17 15:29:18;;;;;;;1999.90;999.90;;;;;;;13.32;95.59;103139.69;10213339;29;20047;-70
2024/02/17 15:34:20;;;;;;;1999.90;999.90;;;;;;;13.04;94.62;103147.53;10214846;29;20130;-70
2024/02/17 15:39:23;;;;;;;1999.90;999.90;;;;;;;13.44;95.86;103148.97;10214105;29;20048;-70
2024/02/17 15:44:25;;;;;;;1999.90;999.90;;;;;;;13.54;95.14;103145.13;10214687;29;20130;-70
2024/02/17 15:49:28;;;;;;;1999.90;999.90;;;;;;;13.33;93.49;103141.41;10214009;29;20079;-70
2024/02/17 15:54:30;;;;;;;1999.90;999.90;;;;;;;13.57;93.65;103151.16;10212691;29;20059;-70
2024/02/17 15:59:33;;;;;;;1999.90;999.90;;;;;;;13.36;92.50;103149.19;10218452;29;20107;-70
2024/02/17 16:04:35;;;;;;;1999.90;999.90;;;;;;;13.45;93.63;103151.56;10221731;29;20052;-70
2024/02/17 16:09:38;;;;;;;1999.90;999.90;;;;;;;13.13;93.63;103160.41;10235220;23;20055;-69
2024/02/17 16:14:40;;;;;;;1999.90;999.90;;;;;;;13.30;94.03;103157.28;10220779;29;20090;-69
2024/02/17 16:19:42;;;;;;;1999.90;999.90;;;;;;;13.23;92.99;103155.72;10221041;29;20491;-69
2024/02/17 16:24:45;;;;;;;1999.90;999.90;;;;;;;13.05;95.43;103150.13;10221010;29;20048;-69
2024/02/17 16:29:47;;;;;;;1999.90;999.90;;;;;;;12.88;97.73;103163.78;10220778;29;20052;-69
2024/02/17 16:34:50;;;;;;;1999.90;999.90;;;;;;;12.87;98.95;103169.94;10220555;29;20078;-69
2024/02/17 16:39:54;;;;;;;1999.90;999.90;;;;;;;12.71;100.00;103172.16;10220984;29;20102;-69
2024/02/17 16:44:56;;;;;;;1999.90;999.90;;;;;;;12.47;100.00;103167.59;10219091;29;20384;-69
2024/02/17 16:49:59;;;;;;;1999.90;999.90;;;;;;;12.47;100.00;103163.19;10220062;29;20055;-68
2024/02/17 16:55:01;;;;;;;1999.90;999.90;;;;;;;12.23;100.00;103157.69;10220483;29;20051;-67
2024/02/17 17:00:04;;;;;;;1999.90;999.90;;;;;;;11.93;100.00;103155.88;10220292;29;20048;-67
2024/02/17 17:05:07;;;;;;;1999.90;999.90;;;;;;;11.39;100.00;103152.75;10219479;29;20410;-67
2024/02/17 17:10:10;;;;;;;1999.90;999.90;;;;;;;11.24;100.00;103151.34;10218187;29;20134;-67
2024/02/17 17:15:12;;;;;;;1999.90;999.90;;;;;;;11.28;100.00;103157.38;10219762;29;20063;-67
2024/02/17 17:20:17;;;;;;;1999.90;999.90;;;;;;;11.28;100.00;103154.75;10218826;29;20495;-67
2024/02/17 17:25:19;;;;;;;1999.90;999.90;;;;;;;11.19;100.00;103153.22;10218792;29;20059;-67
2024/02/17 17:30:25;;;;;;;1999.90;999.90;;;;;;;11.14;100.00;103162.94;10219193;29;20083;-67
2024/02/17 17:35:27;;;;;;;1999.90;999.90;;;;;;;11.34;100.00;103165.13;10219026;29;20067;-67
2024/02/17 17:40:29;;;;;;;1999.90;999.90;;;;;;;11.33;100.00;103166.91;10217667;29;20471;-69
2024/02/17 17:45:32;;;;;;;1999.90;999.90;;;;;;;11.23;100.00;103161.88;10218646;29;20060;-69
2024/02/17 17:50:34;;;;;;;1999.90;999.90;;;;;;;11.18;100.00;103166.34;10217275;29;20044;-69
2024/02/17 17:55:37;;;;;;;1999.90;999.90;;;;;;;11.06;100.00;103164.88;10217632;29;20127;-69
2024/02/17 18:00:39;;;;;;;1999.90;999.90;;;;;;;10.75;100.00;103157.66;10217363;29;20048;-69
2024/02/17 18:05:42;;;;;;;1999.90;999.90;;;;;;;10.38;100.00;103163.63;10217252;29;20388;-69
2024/02/17 18:10:44;;;;;;;1999.90;999.90;;;;;;;10.45;100.00;103161.75;10217048;29;20055;-69
2024/02/17 18:15:46;;;;;;;1999.90;999.90;;;;;;;10.30;100.00;103166.34;10217420;29;20051;-69
2024/02/17 18:20:49;;;;;;;1999.90;999.90;;;;;;;10.52;100.00;103163.34;10216870;29;20047;-69
2024/02/17 18:25:51;;;;;;;1999.90;999.90;;;;;;;10.42;100.00;103170.50;10217103;29;20055;-69
2024/02/17 18:30:54;;;;;;;1999.90;999.90;;;;;;;10.58;100.00;103171.94;10216216;29;20399;-69
2024/02/17 18:35:56;;;;;;;1999.90;999.90;;;;;;;10.79;100.00;103172.41;10214808;29;20135;-69
2024/02/17 18:40:59;;;;;;;1999.90;999.90;;;;;;;10.55;100.00;103161.53;10214628;29;20051;-69
2024/02/17 18:46:02;;;;;;;1999.90;999.90;;;;;;;10.63;100.00;103165.78;10216374;29;20062;-69
2024/02/17 18:51:07;;;;;;;1999.90;999.90;;;;;;;10.28;100.00;103173.38;10214352;29;20052;-69
2024/02/17 18:56:09;;;;;;;1999.90;999.90;;;;;;;10.11;100.00;103180.66;10215942;29;20047;-69
2024/02/17 19:01:11;;;;;;;1999.90;999.90;;;;;;;10.30;100.00;103191.66;10215752;29;20044;-69
2024/02/17 19:06:14;;;;;;;1999.90;999.90;;;;;;;9.95;100.00;103187.91;10213900;29;20427;-69
2024/02/17 19:11:16;;;;;;;1999.90;999.90;;;;;;;9.84;100.00;103182.84;10213664;29;20059;-69
2024/02/17 19:16:19;;;;;;;1999.90;999.90;;;;;;;10.14;100.00;103175.38;10213607;29;20126;-69
2024/02/17 19:21:21;;;;;;;1999.90;999.90;;;;;;;9.96;100.00;103174.78;10215145;29;20130;-69
2024/02/17 19:26:24;;;;;;;1999.90;999.90;;;;;;;9.93;100.00;103189.69;10214480;29;20090;-69
2024/02/17 19:31:26;;;;;;;1999.90;999.90;;;;;;;9.98;100.00;103178.25;10214239;29;20155;-69
2024/02/17 19:36:29;;;;;;;1999.90;999.90;;;;;;;10.03;100.00;103184.25;10214426;29;20055;-69
2024/02/17 19:41:32;;;;;;;1999.90;999.90;;;;;;;10.22;100.00;103183.94;10212979;29;20240;-69
2024/02/17 19:46:34;;;;;;;1999.90;999.90;;;;;;;10.20;100.00;103178.75;10214710;29;20058;-69
2024/02/17 19:51:40;;;;;;;1999.90;999.90;;;;;;;9.98;100.00;103180.00;10214782;29;20054;-69
2024/02/17 19:56:42;;;;;;;1999.90;999.90;;;;;;;10.03;100.00;103180.78;10214555;29;20062;-69
2024/02/17 20:01:48;;;;;;;1999.90;999.90;;;;;;;10.25;100.00;103190.88;10213730;29;20475;-69
2024/02/17 20:06:50;;;;;;;1999.90;999.90;;;;;;;10.03;100.00;103175.56;10214337;29;20052;-69
2024/02/17 20:11:53;;;;;;;1999.90;999.90;;;;;;;10.30;100.00;103181.19;10213474;29;20135;-69
2024/02/17 20:16:59;;;;;;;1999.90;999.90;;;;;;;10.18;100.00;103177.03;10212979;29;20059;-68
2024/02/17 20:22:03;;;;;;;1999.90;999.90;;;;;;;10.13;100.00;103174.50;10213409;29;20067;-69
2024/02/17 20:27:06;;;;;;;1999.90;999.90;;;;;;;10.21;100.00;103177.84;10213336;29;20486;-69
2024/02/17 20:32:08;;;;;;;1999.90;999.90;;;;;;;10.25;100.00;103178.66;10212732;29;20080;-68
2024/02/17 20:37:10;;;;;;;1999.90;999.90;;;;;;;10.50;100.00;103173.84;10213769;29;20062;-69
2024/02/17 20:42:13;;;;;;;1999.90;999.90;;;;;;;10.53;100.00;103178.19;10212467;29;20067;-68
2024/02/17 20:47:16;;;;;;;1999.90;999.90;;;;;;;10.46;100.00;103173.97;10219714;29;20413;-69
2024/02/17 20:52:18;;;;;;;1999.90;999.90;;;;;;;10.24;100.00;103179.56;10220813;29;20070;-69
2024/02/17 20:57:23;;;;;;;1999.90;999.90;;;;;;;10.10;100.00;103182.41;10220406;29;20051;-69
2024/02/17 21:02:25;;;;;;;1999.90;999.90;;;;;;;10.06;100.00;103177.25;10220122;29;20059;-69
2024/02/17 21:07:32;;;;;;;1999.90;999.90;;;;;;;10.40;100.00;103180.16;10219273;29;20062;-68
2024/02/17 21:12:34;;;;;;;1999.90;999.90;;;;;;;10.46;100.00;103171.34;10219299;29;20411;-69
2024/02/17 21:17:37;;;;;;;1999.90;999.90;;;;;;;10.79;100.00;103169.78;10219705;29;20131;-69
2024/02/17 21:22:40;;;;;;;1999.90;999.90;;;;;;;10.71;100.00;103164.72;10218873;29;20048;-68
2024/02/17 21:27:43;;;;;;;1999.90;999.90;;;;;;;10.71;100.00;103161.25;10218200;29;20083;-69
2024/02/17 21:32:46;;;;;;;1999.90;999.90;;;;;;;10.85;100.00;103161.81;10218576;29;20506;-69
2024/02/17 21:37:49;;;;;;;1999.90;999.90;;;;;;;10.73;100.00;103160.31;10218367;29;20510;-69
2024/02/17 21:42:51;;;;;;;1999.90;999.90;;;;;;;10.82;100.00;103163.63;10218728;29;20052;-68
2024/02/17 21:47:54;;;;;;;1999.90;999.90;;;;;;;10.52;100.00;103145.91;10218539;29;20095;-69